createdAt,value
2023-01-08T00:00:53.927Z,9.14
2023-01-08T00:03:58.027Z,9.27
2023-01-08T00:07:01.997Z,9.19
2023-01-08T00:10:05.981Z,9.30
2023-01-08T00:13:09.835Z,9.21
2023-01-08T00:16:13.924Z,9.36
2023-01-08T00:19:17.900Z,9.44
2023-01-08T00:22:21.918Z,9.25
2023-01-08T00:25:25.905Z,9.32
2023-01-08T00:28:29.838Z,9.38
2023-01-08T00:31:33.852Z,9.47
2023-01-08T00:34:37.830Z,9.41
2023-01-08T00:37:42.009Z,8.92
2023-01-08T00:40:46.004Z,9.39
2023-01-08T00:43:50.008Z,9.50
2023-01-08T00:46:54.201Z,9.72
2023-01-08T00:49:58.171Z,9.49
2023-01-08T00:53:02.012Z,9.05
2023-01-08T00:56:05.913Z,9.48
2023-01-08T00:59:09.943Z,9.20
2023-01-08T01:02:14.174Z,9.47
2023-01-08T01:05:18.171Z,9.44
2023-01-08T01:08:22.130Z,9.79
2023-01-08T01:11:26.016Z,10.00
2023-01-08T01:14:29.998Z,10.12
2023-01-08T01:17:34.252Z,10.15
2023-01-08T01:20:38.267Z,10.08
2023-01-08T01:23:42.121Z,9.85
2023-01-08T01:26:45.910Z,9.95
2023-01-08T01:29:49.928Z,9.66
2023-01-08T01:32:53.885Z,9.48
2023-01-08T01:35:57.786Z,9.85
2023-01-08T01:39:01.642Z,10.03
2023-01-08T01:42:05.837Z,9.88
2023-01-08T01:45:10.133Z,9.88
2023-01-08T01:48:14.413Z,10.13
2023-01-08T01:51:18.235Z,10.33
2023-01-08T01:54:21.950Z,10.39
2023-01-08T01:57:25.958Z,10.08
2023-01-08T02:00:30.071Z,10.21
2023-01-08T02:03:33.908Z,9.95
2023-01-08T02:06:37.697Z,10.22
2023-01-08T02:09:41.725Z,10.41
2023-01-08T02:12:46.503Z,10.04
2023-01-08T02:15:50.720Z,10.04
2023-01-08T02:18:54.478Z,9.80
2023-01-08T02:21:58.624Z,10.00
2023-01-08T02:25:02.647Z,9.58
2023-01-08T02:28:06.709Z,9.81
2023-01-08T02:31:10.647Z,9.86
2023-01-08T02:34:14.448Z,10.04
2023-01-08T02:37:18.492Z,10.11
2023-01-08T02:40:22.779Z,9.96
2023-01-08T02:43:26.552Z,10.09
2023-01-08T02:46:30.466Z,10.67
2023-01-08T02:49:34.398Z,10.20
2023-01-08T02:52:38.732Z,10.50
2023-01-08T02:55:42.742Z,10.70
2023-01-08T02:58:46.611Z,10.63
2023-01-08T03:01:51.478Z,10.93
2023-01-08T03:04:55.327Z,10.84
2023-01-08T03:07:59.225Z,10.25
2023-01-08T03:11:03.205Z,10.27
2023-01-08T03:14:06.873Z,10.73
2023-01-08T03:17:10.883Z,10.60
2023-01-08T03:20:14.783Z,10.37
2023-01-08T03:23:18.789Z,10.71
2023-01-08T03:26:22.693Z,10.45
2023-01-08T03:29:26.530Z,10.45
2023-01-08T03:32:30.460Z,10.62
2023-01-08T03:35:34.429Z,10.11
2023-01-08T03:38:38.397Z,9.83
2023-01-08T03:41:42.234Z,9.70
2023-01-08T03:44:46.176Z,9.79
2023-01-08T03:47:50.099Z,9.70
2023-01-08T03:50:54.361Z,9.71
2023-01-08T03:53:58.190Z,9.76
2023-01-08T03:57:02.095Z,9.64
2023-01-08T04:00:06.271Z,9.86
2023-01-08T04:03:10.495Z,10.10
2023-01-08T04:06:14.610Z,9.97
2023-01-08T04:09:18.461Z,9.87
2023-01-08T04:12:22.423Z,10.01
2023-01-08T04:15:26.566Z,9.95
2023-01-08T04:18:30.552Z,9.42
2023-01-08T04:21:34.623Z,9.63
2023-01-08T04:24:38.482Z,9.57
2023-01-08T04:27:42.557Z,9.68
2023-01-08T04:30:46.544Z,9.76
2023-01-08T04:33:50.414Z,9.79
2023-01-08T04:36:54.828Z,10.01
2023-01-08T04:39:58.500Z,10.07
2023-01-08T04:43:02.591Z,9.96
2023-01-08T04:46:06.638Z,10.33
2023-01-08T04:49:10.413Z,10.46
2023-01-08T04:52:14.334Z,10.44
2023-01-08T04:55:18.485Z,10.41
2023-01-08T04:58:22.466Z,10.41
2023-01-08T05:01:26.626Z,10.31
2023-01-08T05:04:30.585Z,10.44
2023-01-08T05:07:36.000Z,10.27
2023-01-08T05:10:44.784Z,10.56
2023-01-08T05:13:48.902Z,10.50
2023-01-08T05:16:52.963Z,10.28
2023-01-08T05:19:57.060Z,10.09
2023-01-08T05:23:00.731Z,9.75
2023-01-08T05:26:04.837Z,9.66
2023-01-08T05:29:08.593Z,9.53
2023-01-08T05:32:12.686Z,9.74
2023-01-08T05:35:16.685Z,10.03
2023-01-08T05:38:20.630Z,10.32
2023-01-08T05:41:24.649Z,10.49
2023-01-08T05:44:28.908Z,10.58
2023-01-08T05:47:33.011Z,10.51
2023-01-08T05:50:36.805Z,10.50
2023-01-08T05:53:40.773Z,10.48
2023-01-08T05:56:44.826Z,10.57
2023-01-08T05:59:48.860Z,10.59
2023-01-08T06:02:52.825Z,10.26
2023-01-08T06:05:56.614Z,10.27
2023-01-08T06:09:00.839Z,10.41
2023-01-08T06:12:04.939Z,10.49
2023-01-08T06:15:08.968Z,10.58
2023-01-08T06:18:12.841Z,10.32
2023-01-08T06:21:17.134Z,10.38
2023-01-08T06:24:21.176Z,10.49
2023-01-08T06:27:25.421Z,10.42
2023-01-08T06:30:29.308Z,10.35
2023-01-08T06:33:33.155Z,9.96
2023-01-08T06:36:37.220Z,9.53
2023-01-08T06:39:41.074Z,9.64
2023-01-08T06:42:45.154Z,9.96
2023-01-08T06:45:49.034Z,10.22
2023-01-08T06:48:53.234Z,10.24
2023-01-08T06:51:57.222Z,10.29
2023-01-08T06:55:01.248Z,10.38
2023-01-08T06:58:05.222Z,10.25
2023-01-08T07:01:09.118Z,10.22
2023-01-08T07:04:13.230Z,10.30
2023-01-08T07:07:17.092Z,10.38
2023-01-08T07:10:21.113Z,9.98
2023-01-08T07:13:24.877Z,10.00
2023-01-08T07:16:28.889Z,10.21
2023-01-08T07:19:32.874Z,10.23
2023-01-08T07:22:36.579Z,10.29
2023-01-08T07:25:40.495Z,10.33
2023-01-08T07:28:44.369Z,10.37
2023-01-08T07:31:48.629Z,10.35
2023-01-08T07:34:52.694Z,9.83
2023-01-08T07:37:56.698Z,10.07
2023-01-08T07:41:00.588Z,10.15
2023-01-08T07:44:04.361Z,10.30
2023-01-08T07:47:08.536Z,10.43
2023-01-08T07:50:12.741Z,10.42
2023-01-08T07:53:16.731Z,10.43
2023-01-08T07:56:20.756Z,10.32
2023-01-08T07:59:24.644Z,10.36
2023-01-08T08:02:28.898Z,10.25
2023-01-08T08:05:32.717Z,10.31
2023-01-08T08:08:36.667Z,10.01
2023-01-08T08:11:40.789Z,10.21
2023-01-08T08:14:44.840Z,10.18
2023-01-08T08:17:48.508Z,10.34
2023-01-08T08:20:52.432Z,10.24
2023-01-08T08:23:56.389Z,10.37
2023-01-08T08:27:00.290Z,10.46
2023-01-08T08:30:04.311Z,10.52
2023-01-08T08:33:08.310Z,10.49
2023-01-08T08:36:12.147Z,10.44
2023-01-08T08:39:16.207Z,10.40
2023-01-08T08:42:20.425Z,10.43
2023-01-08T08:45:24.654Z,10.38
2023-01-08T08:48:28.629Z,10.47
2023-01-08T08:51:32.476Z,10.57
2023-01-08T08:54:36.593Z,10.58
2023-01-08T08:57:40.948Z,10.53
2023-01-08T09:00:44.844Z,10.42
2023-01-08T09:03:48.801Z,10.33
2023-01-08T09:06:52.958Z,10.32
2023-01-08T09:09:57.096Z,10.20
2023-01-08T09:13:01.251Z,10.40
2023-01-08T09:16:05.358Z,10.53
2023-01-08T09:19:09.208Z,10.66
2023-01-08T09:22:13.139Z,10.41
2023-01-08T09:25:17.093Z,10.64
2023-01-08T09:28:21.024Z,10.51
2023-01-08T09:31:24.936Z,10.48
2023-01-08T09:34:28.964Z,10.17
2023-01-08T09:37:33.085Z,10.41
2023-01-08T09:40:37.306Z,10.67
2023-01-08T09:43:41.400Z,10.51
2023-01-08T09:46:45.309Z,10.32
2023-01-08T09:49:49.231Z,10.13
2023-01-08T09:52:53.468Z,10.02
2023-01-08T09:56:09.209Z,9.93
2023-01-08T09:59:14.029Z,9.35
2023-01-08T10:02:18.353Z,10.14
2023-01-08T10:05:22.218Z,10.55
2023-01-08T10:08:26.041Z,10.58
2023-01-08T10:11:30.775Z,10.61
2023-01-08T10:14:34.812Z,10.67
2023-01-08T10:17:38.717Z,10.16
2023-01-08T10:20:42.949Z,10.48
2023-01-08T10:23:46.760Z,10.76
2023-01-08T10:26:51.557Z,10.47
2023-01-08T10:29:56.254Z,10.75
2023-01-08T10:33:00.424Z,10.72
2023-01-08T10:36:04.326Z,10.93
2023-01-08T10:39:08.270Z,10.96
2023-01-08T10:42:12.245Z,10.87
2023-01-08T10:45:16.214Z,10.88
2023-01-08T10:48:19.979Z,11.27
2023-01-08T10:51:24.123Z,11.35
2023-01-08T10:54:27.960Z,11.50
2023-01-08T10:57:31.815Z,11.47
2023-01-08T11:00:36.060Z,11.01
2023-01-08T11:03:40.232Z,10.81
2023-01-08T11:06:43.972Z,10.95
2023-01-08T11:09:47.847Z,10.84
2023-01-08T11:12:51.825Z,10.97
2023-01-08T11:15:56.051Z,11.19
2023-01-08T11:18:59.964Z,11.11
2023-01-08T11:22:03.742Z,11.08
2023-01-08T11:25:07.668Z,10.83
2023-01-08T11:28:11.709Z,11.11
2023-01-08T11:31:15.612Z,10.94
2023-01-08T11:34:19.390Z,11.18
2023-01-08T11:37:23.609Z,11.33
2023-01-08T11:40:27.585Z,11.33
2023-01-08T11:43:31.681Z,10.94
2023-01-08T11:46:35.918Z,10.67
2023-01-08T11:49:39.622Z,10.64
2023-01-08T11:52:43.646Z,10.51
2023-01-08T11:55:47.749Z,10.85
2023-01-08T11:58:51.608Z,11.02
2023-01-08T12:01:55.741Z,11.27
2023-01-08T12:04:59.466Z,11.33
2023-01-08T12:08:03.654Z,11.39
2023-01-08T12:11:07.792Z,10.95
2023-01-08T12:14:11.681Z,10.94
2023-01-08T12:17:15.532Z,11.12
2023-01-08T12:20:19.507Z,11.25
2023-01-08T12:23:23.589Z,11.32
2023-01-08T12:26:27.679Z,11.41
2023-01-08T12:29:31.536Z,11.43
2023-01-08T12:32:35.463Z,11.44
2023-01-08T12:35:39.482Z,11.04
2023-01-08T12:38:43.454Z,11.06
2023-01-08T12:41:47.246Z,11.10
2023-01-08T12:44:51.325Z,11.13
2023-01-08T12:47:55.700Z,10.83
2023-01-08T12:50:59.894Z,10.98
2023-01-08T12:54:03.952Z,11.14
2023-01-08T12:57:08.002Z,11.10
2023-01-08T13:00:12.088Z,11.28
2023-01-08T13:03:16.187Z,11.37
2023-01-08T13:06:20.150Z,11.50
2023-01-08T13:09:24.192Z,11.44
2023-01-08T13:12:28.100Z,11.48
2023-01-08T13:15:32.086Z,11.34
2023-01-08T13:18:36.049Z,11.23
2023-01-08T13:21:40.148Z,11.16
2023-01-08T13:24:44.173Z,10.85
2023-01-08T13:27:48.210Z,10.68
2023-01-08T13:30:52.416Z,10.62
2023-01-08T13:33:56.537Z,10.96
2023-01-08T13:37:00.490Z,11.05
2023-01-08T13:40:04.365Z,11.20
2023-01-08T13:43:08.332Z,10.94
2023-01-08T13:46:12.535Z,10.56
2023-01-08T13:49:16.323Z,10.76
2023-01-08T13:52:20.328Z,11.04
2023-01-08T13:55:24.331Z,11.15
2023-01-08T13:58:30.830Z,10.87
2023-01-08T14:01:35.261Z,11.02
2023-01-08T14:04:41.557Z,11.16
2023-01-08T14:07:45.374Z,10.74
2023-01-08T14:10:49.147Z,10.87
2023-01-08T14:13:53.102Z,11.05
2023-01-08T14:16:57.159Z,11.15
2023-01-08T14:20:01.350Z,11.08
2023-01-08T14:23:05.373Z,11.03
2023-01-08T14:26:09.155Z,10.77
2023-01-08T14:29:13.245Z,10.60
2023-01-08T14:32:17.311Z,10.26
2023-01-08T14:35:21.181Z,10.62
2023-01-08T14:38:24.949Z,10.39
2023-01-08T14:41:28.949Z,10.50
2023-01-08T14:44:40.472Z,10.05
2023-01-08T14:47:46.124Z,10.03
2023-01-08T14:50:50.110Z,10.18
2023-01-08T14:53:54.215Z,10.05
2023-01-08T14:56:58.174Z,10.20
2023-01-08T15:00:02.063Z,10.34
2023-01-08T15:03:06.324Z,10.33
2023-01-08T15:06:10.145Z,9.80
2023-01-08T15:09:14.076Z,9.89
2023-01-08T15:12:18.043Z,9.49
2023-01-08T15:15:21.640Z,9.92
2023-01-08T15:18:25.529Z,10.14
2023-01-08T15:21:29.503Z,9.69
2023-01-08T15:24:33.484Z,9.57
2023-01-08T15:27:37.649Z,10.19
2023-01-08T15:30:41.655Z,10.42
2023-01-08T15:33:45.688Z,10.55
2023-01-08T15:36:49.611Z,10.61
2023-01-08T15:39:53.724Z,10.72
2023-01-08T15:42:57.503Z,10.83
2023-01-08T15:46:01.698Z,10.79
2023-01-08T15:49:05.639Z,10.86
2023-01-08T15:52:09.746Z,10.76
2023-01-08T15:55:13.533Z,10.70
2023-01-08T15:58:17.618Z,10.35
2023-01-08T16:01:21.893Z,10.16
2023-01-08T16:04:25.804Z,10.46
2023-01-08T16:07:29.836Z,10.71
2023-01-08T16:10:33.988Z,10.42
2023-01-08T16:13:38.016Z,10.54
2023-01-08T16:16:42.267Z,10.59
2023-01-08T16:19:46.131Z,10.59
2023-01-08T16:22:49.995Z,10.78
2023-01-08T16:25:53.978Z,10.89
2023-01-08T16:28:58.110Z,10.69
2023-01-08T16:32:02.264Z,10.67
2023-01-08T16:35:06.375Z,10.64
2023-01-08T16:38:10.362Z,10.65
2023-01-08T16:41:14.325Z,10.15
2023-01-08T16:44:18.486Z,10.11
2023-01-08T16:47:22.448Z,9.96
2023-01-08T16:50:26.298Z,10.48
2023-01-08T16:53:30.420Z,10.58
2023-01-08T16:56:34.330Z,10.76
2023-01-08T16:59:38.360Z,10.86
2023-01-08T17:02:42.134Z,10.76
2023-01-08T17:05:46.098Z,10.59
2023-01-08T17:08:50.220Z,10.57
2023-01-08T17:11:54.258Z,10.61
2023-01-08T17:14:58.228Z,10.71
2023-01-08T17:18:02.294Z,10.24
2023-01-08T17:21:06.506Z,10.51
2023-01-08T17:24:10.786Z,10.01
2023-01-08T17:27:14.808Z,10.40
2023-01-08T17:30:18.757Z,10.42
2023-01-08T17:33:22.784Z,10.53
2023-01-08T17:36:26.515Z,10.52
2023-01-08T17:39:30.736Z,10.35
2023-01-08T17:42:34.597Z,10.37
2023-01-08T17:45:38.423Z,10.45
2023-01-08T17:48:42.449Z,10.36
2023-01-08T17:51:46.756Z,10.41
2023-01-08T17:54:50.732Z,10.42
2023-01-08T17:57:54.614Z,10.35
2023-01-08T18:00:58.710Z,10.40
2023-01-08T18:04:02.817Z,10.39
2023-01-08T18:07:06.838Z,10.36
2023-01-08T18:10:10.866Z,10.19
2023-01-08T18:13:14.712Z,10.13
2023-01-08T18:16:18.695Z,10.31
2023-01-08T18:19:22.836Z,10.19
2023-01-08T18:22:26.504Z,10.28
2023-01-08T18:25:30.579Z,10.18
2023-01-08T18:28:34.624Z,10.01
2023-01-08T18:31:38.801Z,10.17
2023-01-08T18:34:42.664Z,10.10
2023-01-08T18:37:46.550Z,10.22
2023-01-08T18:40:50.344Z,10.28
2023-01-08T18:43:54.264Z,10.30
2023-01-08T18:46:58.141Z,10.27
2023-01-08T18:50:02.307Z,10.14
2023-01-08T18:53:06.242Z,9.79
2023-01-08T18:56:10.290Z,9.91
2023-01-08T18:59:14.460Z,9.97
2023-01-08T19:02:18.805Z,9.72
2023-01-08T19:05:22.867Z,9.45
2023-01-08T19:08:26.853Z,9.26
2023-01-08T19:11:30.824Z,9.20
2023-01-08T19:14:35.016Z,9.29
2023-01-08T19:17:39.210Z,9.23
2023-01-08T19:20:43.068Z,9.40
2023-01-08T19:23:46.948Z,9.47
2023-01-08T19:26:50.922Z,9.61
2023-01-08T19:29:54.981Z,9.60
2023-01-08T19:32:58.978Z,9.49
2023-01-08T19:36:02.926Z,9.40
2023-01-08T19:39:06.840Z,9.39
2023-01-08T19:42:12.391Z,9.29
2023-01-08T19:45:16.339Z,9.39
2023-01-08T19:48:20.331Z,9.50
2023-01-08T19:51:24.124Z,9.58
2023-01-08T19:54:28.140Z,9.53
2023-01-08T19:57:32.408Z,9.54
2023-01-08T20:00:36.354Z,9.59
2023-01-08T20:03:40.321Z,9.68
2023-01-08T20:06:44.167Z,9.76
2023-01-08T20:09:48.350Z,9.84
2023-01-08T20:12:52.424Z,9.95
2023-01-08T20:15:56.140Z,9.94
2023-01-08T20:18:59.967Z,9.75
2023-01-08T20:22:04.056Z,9.88
2023-01-08T20:25:08.125Z,9.93
2023-01-08T20:28:12.221Z,9.97
2023-01-08T20:31:16.029Z,9.97
2023-01-08T20:34:19.905Z,10.07
2023-01-08T20:37:24.230Z,10.05
2023-01-08T20:40:28.361Z,10.20
2023-01-08T20:43:32.426Z,10.18
2023-01-08T20:46:36.322Z,10.28
2023-01-08T20:49:40.297Z,10.26
2023-01-08T20:52:44.322Z,10.32
2023-01-08T20:55:48.523Z,10.39
2023-01-08T20:58:52.173Z,10.37
2023-01-08T21:01:56.176Z,10.02
2023-01-08T21:05:00.151Z,9.88
2023-01-08T21:08:04.175Z,9.72
2023-01-08T21:11:07.870Z,9.70
2023-01-08T21:14:11.697Z,9.75
2023-01-08T21:17:15.832Z,9.45
2023-01-08T21:20:19.796Z,9.79
2023-01-08T21:23:24.083Z,9.50
2023-01-08T21:26:27.866Z,9.49
2023-01-08T21:29:31.870Z,9.49
2023-01-08T21:32:36.120Z,9.89
2023-01-08T21:35:40.157Z,9.82
2023-01-08T21:38:44.289Z,10.14
2023-01-08T21:41:48.416Z,9.97
2023-01-08T21:44:52.155Z,10.02
2023-01-08T21:47:58.548Z,10.27
2023-01-08T21:51:02.609Z,10.37
2023-01-08T21:54:06.545Z,10.41
2023-01-08T21:57:10.420Z,10.47
2023-01-08T22:00:14.458Z,10.12
2023-01-08T22:03:18.404Z,10.27
2023-01-08T22:06:22.304Z,10.27
2023-01-08T22:09:26.133Z,10.45
2023-01-08T22:12:30.280Z,10.40
2023-01-08T22:15:34.462Z,10.66
2023-01-08T22:18:38.608Z,10.57
2023-01-08T22:21:42.634Z,10.49
2023-01-08T22:24:46.363Z,10.60
2023-01-08T22:27:50.456Z,10.59
2023-01-08T22:30:54.713Z,10.68
2023-01-08T22:33:58.604Z,10.67
2023-01-08T22:37:02.470Z,10.48
2023-01-08T22:40:06.381Z,10.37
2023-01-08T22:43:10.389Z,10.57
2023-01-08T22:46:15.558Z,10.69
2023-01-08T22:49:19.408Z,10.62
2023-01-08T22:52:23.232Z,10.78
2023-01-08T22:55:27.115Z,10.92
2023-01-08T22:58:31.281Z,11.03
2023-01-08T23:01:35.244Z,11.07
2023-01-08T23:04:39.289Z,10.96
2023-01-08T23:07:43.158Z,10.86
2023-01-08T23:10:48.379Z,10.90
2023-01-08T23:13:52.300Z,10.30
2023-01-08T23:16:56.356Z,10.01
2023-01-08T23:20:00.179Z,10.02
2023-01-08T23:23:04.120Z,10.44
2023-01-08T23:26:08.093Z,10.51
2023-01-08T23:29:12.142Z,10.25
2023-01-08T23:32:16.106Z,9.85
2023-01-08T23:35:19.903Z,10.27
2023-01-08T23:38:23.878Z,10.25
2023-01-08T23:41:28.061Z,10.37
2023-01-08T23:44:32.074Z,10.41
2023-01-08T23:47:35.949Z,10.60
2023-01-08T23:50:39.963Z,10.75
2023-01-08T23:53:44.079Z,10.85
2023-01-08T23:56:48.155Z,10.86
2023-01-08T23:59:52.122Z,11.01
